Time;durP1;ratioP1;P1;durP2;ratioP2;P2;SDS_P1;SDS_P2;PMS_P1;PMS_P2;Temp;Humidity;BMP_temperature;BMP_pressure;BME280_temperature;BME280_humidity;BME280_pressure;Samples;Min_cycle;Max_cycle;Signal;HPM_P1;HPM_P2
2020/10/11 00:00:54;;;;;;;5.35;4.650001;;;;;;;7.45;100;95621.95;;;;
2020/10/11 00:01:56;;;;;;;5.35;4.650001;;;;;;;7.45;100;95621.95;;;;
2020/10/11 00:02:56;;;;;;;5.35;4.650001;;;;;;;7.45;100;95621.95;;;;
2020/10/11 00:03:57;;;;;;;5.35;4.650001;;;;;;;7.45;100;95621.95;;;;
2020/10/11 00:04:57;;;;;;;5.35;4.650001;;;;;;;7.45;100;95621.95;;;;
2020/10/11 00:05:58;;;;;;;5.35;4.650001;;;;;;;7.45;100;95621.95;;;;
2020/10/11 00:06:58;;;;;;;5.45;4.75;;;;;;;7.42;100;95616.88;;;;
2020/10/11 00:07:59;;;;;;;5.45;4.75;;;;;;;7.42;100;95616.88;;;;
2020/10/11 00:08:59;;;;;;;5.45;4.75;;;;;;;7.42;100;95616.88;;;;
2020/10/11 00:10:00;;;;;;;5.45;4.75;;;;;;;7.42;100;95616.88;;;;
2020/10/11 00:11:00;;;;;;;5.45;4.75;;;;;;;7.42;100;95616.88;;;;
2020/10/11 00:12:01;;;;;;;5.45;4.75;;;;;;;7.42;100;95616.88;;;;
2020/10/11 00:13:01;;;;;;;5.45;4.75;;;;;;;7.42;100;95616.88;;;;
2020/10/11 00:14:06;;;;;;;5.45;4.75;;;;;;;7.42;100;95616.88;;;;
2020/10/11 00:15:06;;;;;;;5.45;4.75;;;;;;;7.42;100;95616.88;;;;
2020/10/11 00:16:07;;;;;;;5.45;4.75;;;;;;;7.42;100;95616.88;;;;
2020/10/11 00:17:07;;;;;;;5.45;4.75;;;;;;;7.42;100;95616.88;;;;
2020/10/11 00:18:08;;;;;;;5.750001;4.099999;;;;;;;7.43;100;95618.94;;;;
2020/10/11 00:19:08;;;;;;;5.750001;4.099999;;;;;;;7.43;100;95618.94;;;;
2020/10/11 00:20:09;;;;;;;5.750001;4.099999;;;;;;;7.43;100;95618.94;;;;
2020/10/11 00:21:10;;;;;;;5.750001;4.099999;;;;;;;7.43;100;95618.94;;;;
2020/10/11 00:22:10;;;;;;;5.750001;4.099999;;;;;;;7.43;100;95618.94;;;;
2020/10/11 00:23:11;;;;;;;5.750001;4.099999;;;;;;;7.43;100;95618.94;;;;
2020/10/11 00:24:12;;;;;;;5.750001;4.099999;;;;;;;7.43;100;95618.94;;;;
2020/10/11 00:25:13;;;;;;;5.750001;4.099999;;;;;;;7.43;100;95618.94;;;;
2020/10/11 00:26:14;;;;;;;5.750001;4.099999;;;;;;;7.43;100;95618.94;;;;
2020/10/11 00:27:14;;;;;;;5.750001;4.099999;;;;;;;7.43;100;95618.94;;;;
2020/10/11 00:28:15;;;;;;;4.25;3.85;;;;;;;7.35;100;95606.24;;;;
2020/10/11 00:29:15;;;;;;;4.25;3.85;;;;;;;7.35;100;95606.24;;;;
2020/10/11 00:30:16;;;;;;;4.25;3.85;;;;;;;7.35;100;95606.24;;;;
2020/10/11 00:31:16;;;;;;;4.25;3.85;;;;;;;7.35;100;95606.24;;;;
2020/10/11 00:32:17;;;;;;;4.25;3.85;;;;;;;7.35;100;95606.24;;;;
2020/10/11 00:33:17;;;;;;;4.25;3.85;;;;;;;7.35;100;95606.24;;;;
2020/10/11 00:34:18;;;;;;;4.25;3.85;;;;;;;7.35;100;95606.24;;;;
2020/10/11 00:35:19;;;;;;;4.25;3.85;;;;;;;7.35;100;95606.24;;;;
2020/10/11 00:36:19;;;;;;;4.25;3.85;;;;;;;7.35;100;95606.24;;;;
2020/10/11 00:37:20;;;;;;;4.25;3.85;;;;;;;7.35;100;95606.24;;;;
2020/10/11 00:38:21;;;;;;;4.25;3.85;;;;;;;7.35;100;95606.24;;;;
2020/10/11 00:39:21;;;;;;;5.199999;3.95;;;;;;;7.37;100;95602.29;;;;
2020/10/11 00:40:30;;;;;;;5.199999;3.95;;;;;;;7.37;100;95602.29;;;;
2020/10/11 00:41:31;;;;;;;5.199999;3.95;;;;;;;7.37;100;95602.29;;;;
2020/10/11 00:42:31;;;;;;;5.199999;3.95;;;;;;;7.37;100;95602.29;;;;
2020/10/11 00:43:34;;;;;;;5.199999;3.95;;;;;;;7.37;100;95602.29;;;;
2020/10/11 00:44:34;;;;;;;5.199999;3.95;;;;;;;7.37;100;95602.29;;;;
2020/10/11 00:45:35;;;;;;;5.199999;3.95;;;;;;;7.37;100;95602.29;;;;
2020/10/11 00:46:35;;;;;;;5.199999;3.95;;;;;;;7.37;100;95602.29;;;;
2020/10/11 00:47:36;;;;;;;5.199999;3.95;;;;;;;7.37;100;95602.29;;;;
2020/10/11 00:48:37;;;;;;;5.199999;3.95;;;;;;;7.37;100;95602.29;;;;
2020/10/11 00:49:39;;;;;;;4.75;4.3;;;;;;;7.4;100;95594.76;;;;
2020/10/11 00:50:39;;;;;;;4.75;4.3;;;;;;;7.4;100;95594.76;;;;
2020/10/11 00:51:40;;;;;;;4.75;4.3;;;;;;;7.4;100;95594.76;;;;
2020/10/11 00:52:40;;;;;;;4.75;4.3;;;;;;;7.4;100;95594.76;;;;
2020/10/11 00:53:46;;;;;;;4.75;4.3;;;;;;;7.4;100;95594.76;;;;
2020/10/11 00:54:46;;;;;;;4.75;4.3;;;;;;;7.4;100;95594.76;;;;
2020/10/11 00:55:47;;;;;;;4.75;4.3;;;;;;;7.4;100;95594.76;;;;
2020/10/11 00:56:49;;;;;;;4.75;4.3;;;;;;;7.4;100;95594.76;;;;
2020/10/11 00:57:51;;;;;;;4.75;4.3;;;;;;;7.4;100;95594.76;;;;
2020/10/11 00:58:52;;;;;;;4.75;4.3;;;;;;;7.4;100;95594.76;;;;
2020/10/11 00:59:53;;;;;;;4.75;4.3;;;;;;;7.4;100;95594.76;;;;
2020/10/11 01:00:56;;;;;;;4.55;4.150001;;;;;;;7.48;100;95573.58;;;;
2020/10/11 01:01:57;;;;;;;4.55;4.150001;;;;;;;7.48;100;95573.58;;;;
2020/10/11 01:02:57;;;;;;;4.55;4.150001;;;;;;;7.48;100;95573.58;;;;
2020/10/11 01:03:58;;;;;;;4.55;4.150001;;;;;;;7.48;100;95573.58;;;;
2020/10/11 01:04:59;;;;;;;4.55;4.150001;;;;;;;7.48;100;95573.58;;;;
2020/10/11 01:06:00;;;;;;;4.55;4.150001;;;;;;;7.48;100;95573.58;;;;
2020/10/11 01:07:12;;;;;;;4.55;4.150001;;;;;;;7.48;100;95573.58;;;;
2020/10/11 01:08:13;;;;;;;4.55;4.150001;;;;;;;7.48;100;95573.58;;;;
2020/10/11 01:09:25;;;;;;;4.55;4.150001;;;;;;;7.48;100;95573.58;;;;
2020/10/11 01:10:30;;;;;;;4.55;4.150001;;;;;;;7.48;100;95573.58;;;;
2020/10/11 01:11:31;;;;;;;7.349999;4.85;;;;;;;7.47;100;95566.03;;;;
2020/10/11 01:12:32;;;;;;;7.349999;4.85;;;;;;;7.47;100;95566.03;;;;
2020/10/11 01:13:32;;;;;;;7.349999;4.85;;;;;;;7.47;100;95566.03;;;;
2020/10/11 01:14:33;;;;;;;7.349999;4.85;;;;;;;7.47;100;95566.03;;;;
2020/10/11 01:15:35;;;;;;;7.349999;4.85;;;;;;;7.47;100;95566.03;;;;
2020/10/11 01:16:35;;;;;;;7.349999;4.85;;;;;;;7.47;100;95566.03;;;;
2020/10/11 01:17:36;;;;;;;7.349999;4.85;;;;;;;7.47;100;95566.03;;;;
2020/10/11 01:18:36;;;;;;;7.349999;4.85;;;;;;;7.47;100;95566.03;;;;
2020/10/11 01:19:37;;;;;;;7.349999;4.85;;;;;;;7.47;100;95566.03;;;;
2020/10/11 01:20:37;;;;;;;7.349999;4.85;;;;;;;7.47;100;95566.03;;;;
2020/10/11 01:21:38;;;;;;;6.100001;4.65;;;;;;;7.49;100;95554.14;;;;
2020/10/11 01:22:38;;;;;;;6.100001;4.65;;;;;;;7.49;100;95554.14;;;;
2020/10/11 01:23:39;;;;;;;6.100001;4.65;;;;;;;7.49;100;95554.14;;;;
2020/10/11 01:24:40;;;;;;;6.100001;4.65;;;;;;;7.49;100;95554.14;;;;
2020/10/11 01:25:40;;;;;;;6.100001;4.65;;;;;;;7.49;100;95554.14;;;;
2020/10/11 01:26:42;;;;;;;6.100001;4.65;;;;;;;7.49;100;95554.14;;;;
2020/10/11 01:27:47;;;;;;;6.100001;4.65;;;;;;;7.49;100;95554.14;;;;
2020/10/11 01:28:50;;;;;;;6.100001;4.65;;;;;;;7.49;100;95554.14;;;;
2020/10/11 01:29:51;;;;;;;6.100001;4.65;;;;;;;7.49;100;95554.14;;;;
2020/10/11 01:30:51;;;;;;;6.100001;4.65;;;;;;;7.49;100;95554.14;;;;
2020/10/11 01:31:52;;;;;;;6.100001;4.65;;;;;;;7.49;100;95554.14;;;;
2020/10/11 01:32:52;;;;;;;5.45;4.95;;;;;;;7.37;100;95549.11;;;;
2020/10/11 01:33:53;;;;;;;5.45;4.95;;;;;;;7.37;100;95549.11;;;;
2020/10/11 01:34:53;;;;;;;5.45;4.95;;;;;;;7.37;100;95549.11;;;;
2020/10/11 01:35:54;;;;;;;5.45;4.95;;;;;;;7.37;100;95549.11;;;;
2020/10/11 01:36:54;;;;;;;5.45;4.95;;;;;;;7.37;100;95549.11;;;;
2020/10/11 01:37:55;;;;;;;5.45;4.95;;;;;;;7.37;100;95549.11;;;;
2020/10/11 01:38:56;;;;;;;5.45;4.95;;;;;;;7.37;100;95549.11;;;;
2020/10/11 01:39:56;;;;;;;5.45;4.95;;;;;;;7.37;100;95549.11;;;;
2020/10/11 01:40:57;;;;;;;5.45;4.95;;;;;;;7.37;100;95549.11;;;;
2020/10/11 01:41:57;;;;;;;5.45;4.95;;;;;;;7.37;100;95549.11;;;;
2020/10/11 01:42:58;;;;;;;6.399999;5.75;;;;;;;7.36;100;95538.87;;;;
2020/10/11 01:43:58;;;;;;;6.399999;5.75;;;;;;;7.36;100;95538.87;;;;
2020/10/11 01:44:59;;;;;;;6.399999;5.75;;;;;;;7.36;100;95538.87;;;;
2020/10/11 01:45:59;;;;;;;6.399999;5.75;;;;;;;7.36;100;95538.87;;;;
2020/10/11 01:47:00;;;;;;;6.399999;5.75;;;;;;;7.36;100;95538.87;;;;
2020/10/11 01:48:01;;;;;;;6.399999;5.75;;;;;;;7.36;100;95538.87;;;;
2020/10/11 01:49:02;;;;;;;6.399999;5.75;;;;;;;7.36;100;95538.87;;;;
2020/10/11 01:50:21;;;;;;;6.399999;5.75;;;;;;;7.36;100;95538.87;;;;
2020/10/11 01:51:23;;;;;;;6.399999;5.75;;;;;;;7.36;100;95538.87;;;;
2020/10/11 01:52:23;;;;;;;6.399999;5.75;;;;;;;7.36;100;95538.87;;;;
2020/10/11 01:53:24;;;;;;;6.849999;6.149999;;;;;;;7.35;100;95533.31;;;;
2020/10/11 01:54:25;;;;;;;6.849999;6.149999;;;;;;;7.35;100;95533.31;;;;
2020/10/11 01:55:27;;;;;;;6.849999;6.149999;;;;;;;7.35;100;95533.31;;;;
2020/10/11 01:56:30;;;;;;;6.849999;6.149999;;;;;;;7.35;100;95533.31;;;;
2020/10/11 01:57:31;;;;;;;6.849999;6.149999;;;;;;;7.35;100;95533.31;;;;
2020/10/11 01:58:32;;;;;;;6.849999;6.149999;;;;;;;7.35;100;95533.31;;;;
2020/10/11 01:59:32;;;;;;;6.849999;6.149999;;;;;;;7.35;100;95533.31;;;;
2020/10/11 02:00:33;;;;;;;6.849999;6.149999;;;;;;;7.35;100;95533.31;;;;
2020/10/11 02:05:45;;;;;;;7.2;5.849999;;;;;;;7.39;100;95528.66;;;;
2020/10/11 02:06:46;;;;;;;7.2;5.849999;;;;;;;7.39;100;95528.66;;;;
2020/10/11 02:07:46;;;;;;;7.2;5.849999;;;;;;;7.39;100;95528.66;;;;
2020/10/11 02:08:48;;;;;;;7.2;5.849999;;;;;;;7.39;100;95528.66;;;;
2020/10/11 02:09:49;;;;;;;7.2;5.849999;;;;;;;7.39;100;95528.66;;;;
2020/10/11 02:10:49;;;;;;;7.2;5.849999;;;;;;;7.39;100;95528.66;;;;
2020/10/11 02:11:50;;;;;;;7.2;5.849999;;;;;;;7.39;100;95528.66;;;;
2020/10/11 02:15:13;;;;;;;6.600001;5.9;;;;;;;7.39;100;95519.26;;;;
2020/10/11 02:16:14;;;;;;;6.600001;5.9;;;;;;;7.39;100;95519.26;;;;
2020/10/11 02:17:16;;;;;;;6.600001;5.9;;;;;;;7.39;100;95519.26;;;;
2020/10/11 02:18:16;;;;;;;6.600001;5.9;;;;;;;7.39;100;95519.26;;;;
2020/10/11 02:19:17;;;;;;;6.600001;5.9;;;;;;;7.39;100;95519.26;;;;
2020/10/11 02:20:17;;;;;;;6.600001;5.9;;;;;;;7.39;100;95519.26;;;;
2020/10/11 02:21:20;;;;;;;6.600001;5.9;;;;;;;7.39;100;95519.26;;;;
2020/10/11 02:22:36;;;;;;;6.600001;5.9;;;;;;;7.39;100;95519.26;;;;
2020/10/11 02:23:36;;;;;;;6.600001;5.9;;;;;;;7.39;100;95519.26;;;;
2020/10/11 02:24:37;;;;;;;6.600001;5.9;;;;;;;7.39;100;95519.26;;;;
2020/10/11 02:25:38;;;;;;;6.1;5.4;;;;;;;7.44;100;95519.45;;;;
2020/10/11 02:26:39;;;;;;;6.1;5.4;;;;;;;7.44;100;95519.45;;;;
2020/10/11 02:27:39;;;;;;;6.1;5.4;;;;;;;7.44;100;95519.45;;;;
2020/10/11 02:28:40;;;;;;;6.1;5.4;;;;;;;7.44;100;95519.45;;;;
2020/10/11 02:29:40;;;;;;;6.1;5.4;;;;;;;7.44;100;95519.45;;;;
2020/10/11 02:30:41;;;;;;;6.1;5.4;;;;;;;7.44;100;95519.45;;;;
2020/10/11 02:31:42;;;;;;;6.1;5.4;;;;;;;7.44;100;95519.45;;;;
2020/10/11 02:32:42;;;;;;;6.1;5.4;;;;;;;7.44;100;95519.45;;;;
2020/10/11 02:33:45;;;;;;;6.1;5.4;;;;;;;7.44;100;95519.45;;;;
2020/10/11 02:34:45;;;;;;;6.1;5.4;;;;;;;7.44;100;95519.45;;;;
2020/10/11 02:35:46;;;;;;;6.1;5.4;;;;;;;7.44;100;95519.45;;;;
2020/10/11 02:36:46;;;;;;;7.299999;5.749999;;;;;;;7.45;100;95523.77;;;;
2020/10/11 02:37:47;;;;;;;7.299999;5.749999;;;;;;;7.45;100;95523.77;;;;
2020/10/11 02:38:48;;;;;;;7.299999;5.749999;;;;;;;7.45;100;95523.77;;;;
2020/10/11 02:39:49;;;;;;;7.299999;5.749999;;;;;;;7.45;100;95523.77;;;;
2020/10/11 02:40:50;;;;;;;7.299999;5.749999;;;;;;;7.45;100;95523.77;;;;
2020/10/11 02:41:50;;;;;;;7.299999;5.749999;;;;;;;7.45;100;95523.77;;;;
2020/10/11 02:42:51;;;;;;;7.299999;5.749999;;;;;;;7.45;100;95523.77;;;;
2020/10/11 02:43:53;;;;;;;7.299999;5.749999;;;;;;;7.45;100;95523.77;;;;
2020/10/11 02:44:53;;;;;;;7.299999;5.749999;;;;;;;7.45;100;95523.77;;;;
2020/10/11 02:45:56;;;;;;;7.299999;5.749999;;;;;;;7.45;100;95523.77;;;;
2020/10/11 02:46:56;;;;;;;6.8;5.050001;;;;;;;7.4;100;95495.89;;;;
2020/10/11 02:47:57;;;;;;;6.8;5.050001;;;;;;;7.4;100;95495.89;;;;
2020/10/11 02:49:09;;;;;;;6.8;5.050001;;;;;;;7.4;100;95495.89;;;;
2020/10/11 02:50:10;;;;;;;6.8;5.050001;;;;;;;7.4;100;95495.89;;;;
2020/10/11 02:51:12;;;;;;;6.8;5.050001;;;;;;;7.4;100;95495.89;;;;
2020/10/11 02:52:13;;;;;;;6.8;5.050001;;;;;;;7.4;100;95495.89;;;;
2020/10/11 02:53:13;;;;;;;6.8;5.050001;;;;;;;7.4;100;95495.89;;;;
2020/10/11 02:54:13;;;;;;;6.8;5.050001;;;;;;;7.4;100;95495.89;;;;
2020/10/11 02:55:14;;;;;;;6.8;5.050001;;;;;;;7.4;100;95495.89;;;;
2020/10/11 02:56:22;;;;;;;6.8;5.050001;;;;;;;7.4;100;95495.89;;;;
2020/10/11 02:57:22;;;;;;;7.450001;5.2;;;;;;;7.08;100;95498.13;;;;
2020/10/11 02:58:22;;;;;;;7.450001;5.2;;;;;;;7.08;100;95498.13;;;;
2020/10/11 02:59:23;;;;;;;7.450001;5.2;;;;;;;7.08;100;95498.13;;;;
2020/10/11 03:00:24;;;;;;;7.450001;5.2;;;;;;;7.08;100;95498.13;;;;
2020/10/11 03:04:33;;;;;;;7.450001;5.2;;;;;;;7.08;100;95498.13;;;;
2020/10/11 03:05:33;;;;;;;7.450001;5.2;;;;;;;7.08;100;95498.13;;;;
2020/10/11 03:06:34;;;;;;;7.450001;5.2;;;;;;;7.08;100;95498.13;;;;
2020/10/11 03:07:34;;;;;;;7.450001;5.2;;;;;;;7.08;100;95498.13;;;;
2020/10/11 03:08:35;;;;;;;6.45;5.25;;;;;;;6.8;100;95497.97;;;;
2020/10/11 03:09:36;;;;;;;6.45;5.25;;;;;;;6.8;100;95497.97;;;;
2020/10/11 03:10:37;;;;;;;6.45;5.25;;;;;;;6.8;100;95497.97;;;;
2020/10/11 03:11:55;;;;;;;6.45;5.25;;;;;;;6.8;100;95497.97;;;;
2020/10/11 03:13:28;;;;;;;6.45;5.25;;;;;;;6.8;100;95497.97;;;;
2020/10/11 03:14:29;;;;;;;6.45;5.25;;;;;;;6.8;100;95497.97;;;;
2020/10/11 03:15:30;;;;;;;6.45;5.25;;;;;;;6.8;100;95497.97;;;;
2020/10/11 03:16:31;;;;;;;6.45;5.25;;;;;;;6.8;100;95497.97;;;;
2020/10/11 03:17:31;;;;;;;6.45;5.25;;;;;;;6.8;100;95497.97;;;;
2020/10/11 03:18:32;;;;;;;6.45;5.25;;;;;;;6.8;100;95497.97;;;;
2020/10/11 03:19:33;;;;;;;6.5;5.35;;;;;;;6.48;100;95496;;;;
2020/10/11 03:20:37;;;;;;;6.5;5.35;;;;;;;6.48;100;95496;;;;
2020/10/11 03:21:42;;;;;;;6.5;5.35;;;;;;;6.48;100;95496;;;;
2020/10/11 03:22:43;;;;;;;6.5;5.35;;;;;;;6.48;100;95496;;;;
2020/10/11 03:23:43;;;;;;;6.5;5.35;;;;;;;6.48;100;95496;;;;
2020/10/11 03:24:44;;;;;;;6.5;5.35;;;;;;;6.48;100;95496;;;;
2020/10/11 03:25:44;;;;;;;6.5;5.35;;;;;;;6.48;100;95496;;;;
2020/10/11 03:26:45;;;;;;;6.5;5.35;;;;;;;6.48;100;95496;;;;
2020/10/11 03:27:45;;;;;;;6.5;5.35;;;;;;;6.48;100;95496;;;;
2020/10/11 03:28:46;;;;;;;6.5;5.35;;;;;;;6.48;100;95496;;;;
2020/10/11 03:29:46;;;;;;;6.349999;5.45;;;;;;;6.32;100;95490.2;;;;
2020/10/11 03:30:47;;;;;;;6.349999;5.45;;;;;;;6.32;100;95490.2;;;;
2020/10/11 03:31:47;;;;;;;6.349999;5.45;;;;;;;6.32;100;95490.2;;;;
2020/10/11 03:32:48;;;;;;;6.349999;5.45;;;;;;;6.32;100;95490.2;;;;
2020/10/11 03:33:49;;;;;;;6.349999;5.45;;;;;;;6.32;100;95490.2;;;;
2020/10/11 03:34:50;;;;;;;6.349999;5.45;;;;;;;6.32;100;95490.2;;;;
2020/10/11 03:35:51;;;;;;;6.349999;5.45;;;;;;;6.32;100;95490.2;;;;
2020/10/11 03:36:51;;;;;;;6.349999;5.45;;;;;;;6.32;100;95490.2;;;;
2020/10/11 03:37:53;;;;;;;6.349999;5.45;;;;;;;6.32;100;95490.2;;;;
2020/10/11 03:38:53;;;;;;;6.349999;5.45;;;;;;;6.32;100;95490.2;;;;
2020/10/11 03:39:54;;;;;;;6.349999;5.45;;;;;;;6.32;100;95490.2;;;;
2020/10/11 03:40:55;;;;;;;6.25;5.399999;;;;;;;6.12;100;95488.42;;;;
2020/10/11 03:41:56;;;;;;;6.25;5.399999;;;;;;;6.12;100;95488.42;;;;
2020/10/11 03:43:00;;;;;;;6.25;5.399999;;;;;;;6.12;100;95488.42;;;;
2020/10/11 03:44:00;;;;;;;6.25;5.399999;;;;;;;6.12;100;95488.42;;;;
2020/10/11 03:45:01;;;;;;;6.25;5.399999;;;;;;;6.12;100;95488.42;;;;
2020/10/11 03:46:01;;;;;;;6.25;5.399999;;;;;;;6.12;100;95488.42;;;;
2020/10/11 03:47:02;;;;;;;6.25;5.399999;;;;;;;6.12;100;95488.42;;;;
2020/10/11 03:48:02;;;;;;;6.25;5.399999;;;;;;;6.12;100;95488.42;;;;
2020/10/11 03:49:03;;;;;;;6.25;5.399999;;;;;;;6.12;100;95488.42;;;;
2020/10/11 03:50:08;;;;;;;6.25;5.399999;;;;;;;6.12;100;95488.42;;;;
2020/10/11 03:51:10;;;;;;;7.350001;5.849999;;;;;;;6.02;100;95484.81;;;;
2020/10/11 03:52:10;;;;;;;7.350001;5.849999;;;;;;;6.02;100;95484.81;;;;
2020/10/11 03:53:11;;;;;;;7.350001;5.849999;;;;;;;6.02;100;95484.81;;;;
2020/10/11 03:54:15;;;;;;;7.350001;5.849999;;;;;;;6.02;100;95484.81;;;;
2020/10/11 03:55:19;;;;;;;7.350001;5.849999;;;;;;;6.02;100;95484.81;;;;
2020/10/11 03:56:22;;;;;;;7.350001;5.849999;;;;;;;6.02;100;95484.81;;;;
2020/10/11 03:57:29;;;;;;;7.350001;5.849999;;;;;;;6.02;100;95484.81;;;;
2020/10/11 03:58:30;;;;;;;7.350001;5.849999;;;;;;;6.02;100;95484.81;;;;
2020/10/11 03:59:30;;;;;;;7.350001;5.849999;;;;;;;6.02;100;95484.81;;;;
2020/10/11 04:00:33;;;;;;;7.350001;5.849999;;;;;;;6.02;100;95484.81;;;;
2020/10/11 04:01:35;;;;;;;9.95;6.299999;;;;;;;5.87;100;95490.01;;;;
2020/10/11 04:02:37;;;;;;;9.95;6.299999;;;;;;;5.87;100;95490.01;;;;
2020/10/11 04:03:38;;;;;;;9.95;6.299999;;;;;;;5.87;100;95490.01;;;;
2020/10/11 04:04:38;;;;;;;9.95;6.299999;;;;;;;5.87;100;95490.01;;;;
2020/10/11 04:05:43;;;;;;;9.95;6.299999;;;;;;;5.87;100;95490.01;;;;
2020/10/11 04:06:43;;;;;;;9.95;6.299999;;;;;;;5.87;100;95490.01;;;;
2020/10/11 04:07:44;;;;;;;9.95;6.299999;;;;;;;5.87;100;95490.01;;;;
2020/10/11 04:08:45;;;;;;;9.95;6.299999;;;;;;;5.87;100;95490.01;;;;
2020/10/11 04:09:45;;;;;;;9.95;6.299999;;;;;;;5.87;100;95490.01;;;;
2020/10/11 04:10:47;;;;;;;9.95;6.299999;;;;;;;5.87;100;95490.01;;;;
2020/10/11 04:11:53;;;;;;;9.95;6.299999;;;;;;;5.87;100;95490.01;;;;
2020/10/11 04:12:53;;;;;;;9.149999;6.500001;;;;;;;5.85;100;95495.58;;;;
2020/10/11 04:13:54;;;;;;;9.149999;6.500001;;;;;;;5.85;100;95495.58;;;;
2020/10/11 04:14:54;;;;;;;9.149999;6.500001;;;;;;;5.85;100;95495.58;;;;
2020/10/11 04:15:55;;;;;;;9.149999;6.500001;;;;;;;5.85;100;95495.58;;;;
2020/10/11 04:16:56;;;;;;;9.149999;6.500001;;;;;;;5.85;100;95495.58;;;;
2020/10/11 04:17:58;;;;;;;9.149999;6.500001;;;;;;;5.85;100;95495.58;;;;
2020/10/11 04:19:00;;;;;;;9.149999;6.500001;;;;;;;5.85;100;95495.58;;;;
2020/10/11 04:20:00;;;;;;;9.149999;6.500001;;;;;;;5.85;100;95495.58;;;;
2020/10/11 04:21:01;;;;;;;9.149999;6.500001;;;;;;;5.85;100;95495.58;;;;
2020/10/11 04:22:02;;;;;;;9.149999;6.500001;;;;;;;5.85;100;95495.58;;;;
2020/10/11 04:23:18;;;;;;;10.05;6.550001;;;;;;;5.8;100;95493.98;;;;
2020/10/11 04:24:19;;;;;;;10.05;6.550001;;;;;;;5.8;100;95493.98;;;;
2020/10/11 04:25:20;;;;;;;10.05;6.550001;;;;;;;5.8;100;95493.98;;;;
2020/10/11 04:26:20;;;;;;;10.05;6.550001;;;;;;;5.8;100;95493.98;;;;
2020/10/11 04:27:22;;;;;;;10.05;6.550001;;;;;;;5.8;100;95493.98;;;;
2020/10/11 04:28:23;;;;;;;10.05;6.550001;;;;;;;5.8;100;95493.98;;;;
2020/10/11 04:29:24;;;;;;;10.05;6.550001;;;;;;;5.8;100;95493.98;;;;
2020/10/11 04:30:24;;;;;;;10.05;6.550001;;;;;;;5.8;100;95493.98;;;;
2020/10/11 04:31:25;;;;;;;10.05;6.550001;;;;;;;5.8;100;95493.98;;;;
2020/10/11 04:32:26;;;;;;;10.05;6.550001;;;;;;;5.8;100;95493.98;;;;
2020/10/11 04:33:28;;;;;;;8;6.299999;;;;;;;5.79;100;95488.3;;;;
2020/10/11 04:34:30;;;;;;;8;6.299999;;;;;;;5.79;100;95488.3;;;;
2020/10/11 04:35:32;;;;;;;8;6.299999;;;;;;;5.79;100;95488.3;;;;
2020/10/11 04:36:33;;;;;;;8;6.299999;;;;;;;5.79;100;95488.3;;;;
2020/10/11 04:37:35;;;;;;;8;6.299999;;;;;;;5.79;100;95488.3;;;;
2020/10/11 04:38:36;;;;;;;8;6.299999;;;;;;;5.79;100;95488.3;;;;
2020/10/11 04:39:37;;;;;;;8;6.299999;;;;;;;5.79;100;95488.3;;;;
2020/10/11 04:40:37;;;;;;;8;6.299999;;;;;;;5.79;100;95488.3;;;;
2020/10/11 04:41:39;;;;;;;8;6.299999;;;;;;;5.79;100;95488.3;;;;
2020/10/11 04:42:39;;;;;;;8;6.299999;;;;;;;5.79;100;95488.3;;;;
2020/10/11 04:43:40;;;;;;;8;6.299999;;;;;;;5.79;100;95488.3;;;;
2020/10/11 04:44:41;;;;;;;8.549999;6.299999;;;;;;;5.76;100;95486.54;;;;
2020/10/11 04:45:41;;;;;;;8.549999;6.299999;;;;;;;5.76;100;95486.54;;;;
2020/10/11 04:46:45;;;;;;;8.549999;6.299999;;;;;;;5.76;100;95486.54;;;;
2020/10/11 04:47:46;;;;;;;8.549999;6.299999;;;;;;;5.76;100;95486.54;;;;
2020/10/11 04:48:47;;;;;;;8.549999;6.299999;;;;;;;5.76;100;95486.54;;;;
2020/10/11 04:49:49;;;;;;;8.549999;6.299999;;;;;;;5.76;100;95486.54;;;;
2020/10/11 04:50:52;;;;;;;8.549999;6.299999;;;;;;;5.76;100;95486.54;;;;
2020/10/11 04:51:54;;;;;;;8.549999;6.299999;;;;;;;5.76;100;95486.54;;;;
2020/10/11 04:52:55;;;;;;;8.549999;6.299999;;;;;;;5.76;100;95486.54;;;;
2020/10/11 04:53:56;;;;;;;8.549999;6.299999;;;;;;;5.76;100;95486.54;;;;
2020/10/11 04:54:56;;;;;;;10;6.75;;;;;;;5.79;100;95486.58;;;;
2020/10/11 04:55:57;;;;;;;10;6.75;;;;;;;5.79;100;95486.58;;;;
2020/10/11 04:56:58;;;;;;;10;6.75;;;;;;;5.79;100;95486.58;;;;
2020/10/11 04:57:58;;;;;;;10;6.75;;;;;;;5.79;100;95486.58;;;;
2020/10/11 04:58:59;;;;;;;10;6.75;;;;;;;5.79;100;95486.58;;;;
2020/10/11 05:00:00;;;;;;;10;6.75;;;;;;;5.79;100;95486.58;;;;
2020/10/11 05:01:37;;;;;;;10;6.75;;;;;;;5.79;100;95486.58;;;;
2020/10/11 05:02:38;;;;;;;10;6.75;;;;;;;5.79;100;95486.58;;;;
2020/10/11 05:03:39;;;;;;;10;6.75;;;;;;;5.79;100;95486.58;;;;
2020/10/11 05:04:40;;;;;;;10;6.75;;;;;;;5.79;100;95486.58;;;;
2020/10/11 05:05:41;;;;;;;9.25;7.2;;;;;;;5.73;100;95486.44;;;;
2020/10/11 05:06:43;;;;;;;9.25;7.2;;;;;;;5.73;100;95486.44;;;;
2020/10/11 05:07:48;;;;;;;9.25;7.2;;;;;;;5.73;100;95486.44;;;;
2020/10/11 05:08:50;;;;;;;9.25;7.2;;;;;;;5.73;100;95486.44;;;;
2020/10/11 05:09:53;;;;;;;9.25;7.2;;;;;;;5.73;100;95486.44;;;;
2020/10/11 05:10:54;;;;;;;9.25;7.2;;;;;;;5.73;100;95486.44;;;;
2020/10/11 05:11:55;;;;;;;9.25;7.2;;;;;;;5.73;100;95486.44;;;;
2020/10/11 05:12:56;;;;;;;9.25;7.2;;;;;;;5.73;100;95486.44;;;;
2020/10/11 05:13:58;;;;;;;9.25;7.2;;;;;;;5.73;100;95486.44;;;;
2020/10/11 05:14:58;;;;;;;9.25;7.2;;;;;;;5.73;100;95486.44;;;;
2020/10/11 05:16:00;;;;;;;9.950001;7.2;;;;;;;5.81;100;95463.06;;;;
2020/10/11 05:17:01;;;;;;;9.950001;7.2;;;;;;;5.81;100;95463.06;;;;
2020/10/11 05:18:05;;;;;;;9.950001;7.2;;;;;;;5.81;100;95463.06;;;;
2020/10/11 05:19:09;;;;;;;9.950001;7.2;;;;;;;5.81;100;95463.06;;;;
2020/10/11 05:20:19;;;;;;;9.950001;7.2;;;;;;;5.81;100;95463.06;;;;
2020/10/11 05:21:22;;;;;;;9.950001;7.2;;;;;;;5.81;100;95463.06;;;;
2020/10/11 05:22:24;;;;;;;9.950001;7.2;;;;;;;5.81;100;95463.06;;;;
2020/10/11 05:23:25;;;;;;;9.950001;7.2;;;;;;;5.81;100;95463.06;;;;
2020/10/11 05:24:27;;;;;;;9.950001;7.2;;;;;;;5.81;100;95463.06;;;;
2020/10/11 05:25:27;;;;;;;9.950001;7.2;;;;;;;5.81;100;95463.06;;;;
2020/10/11 05:26:30;;;;;;;9.950001;7.2;;;;;;;5.81;100;95463.06;;;;
2020/10/11 05:27:31;;;;;;;10.15;7.1;;;;;;;5.72;100;95470.58;;;;
2020/10/11 05:28:36;;;;;;;10.15;7.1;;;;;;;5.72;100;95470.58;;;;
2020/10/11 05:29:40;;;;;;;10.15;7.1;;;;;;;5.72;100;95470.58;;;;
2020/10/11 05:30:53;;;;;;;10.15;7.1;;;;;;;5.72;100;95470.58;;;;
2020/10/11 05:32:01;;;;;;;10.15;7.1;;;;;;;5.72;100;95470.58;;;;
2020/10/11 05:33:03;;;;;;;10.15;7.1;;;;;;;5.72;100;95470.58;;;;
2020/10/11 05:34:05;;;;;;;10.15;7.1;;;;;;;5.72;100;95470.58;;;;
2020/10/11 05:35:14;;;;;;;10.15;7.1;;;;;;;5.72;100;95470.58;;;;
2020/10/11 05:36:15;;;;;;;10.15;7.1;;;;;;;5.72;100;95470.58;;;;
2020/10/11 05:37:15;;;;;;;10.15;7.1;;;;;;;5.72;100;95470.58;;;;
2020/10/11 05:38:16;;;;;;;10.55;7.599999;;;;;;;5.65;100;95467.44;;;;
2020/10/11 05:39:35;;;;;;;10.55;7.599999;;;;;;;5.65;100;95467.44;;;;
2020/10/11 05:40:41;;;;;;;10.55;7.599999;;;;;;;5.65;100;95467.44;;;;
2020/10/11 05:41:43;;;;;;;10.55;7.599999;;;;;;;5.65;100;95467.44;;;;
2020/10/11 05:42:44;;;;;;;10.55;7.599999;;;;;;;5.65;100;95467.44;;;;
2020/10/11 05:44:00;;;;;;;10.55;7.599999;;;;;;;5.65;100;95467.44;;;;
2020/10/11 05:45:00;;;;;;;10.55;7.599999;;;;;;;5.65;100;95467.44;;;;
2020/10/11 05:46:05;;;;;;;10.55;7.599999;;;;;;;5.65;100;95467.44;;;;
2020/10/11 05:47:06;;;;;;;10.55;7.599999;;;;;;;5.65;100;95467.44;;;;
2020/10/11 05:48:16;;;;;;;12.7;8.449998;;;;;;;5.56;100;95470.94;;;;
2020/10/11 05:49:23;;;;;;;12.7;8.449998;;;;;;;5.56;100;95470.94;;;;
2020/10/11 05:50:27;;;;;;;12.7;8.449998;;;;;;;5.56;100;95470.94;;;;
2020/10/11 05:51:40;;;;;;;12.7;8.449998;;;;;;;5.56;100;95470.94;;;;
2020/10/11 05:52:40;;;;;;;12.7;8.449998;;;;;;;5.56;100;95470.94;;;;
2020/10/11 05:53:41;;;;;;;12.7;8.449998;;;;;;;5.56;100;95470.94;;;;
2020/10/11 05:54:43;;;;;;;12.7;8.449998;;;;;;;5.56;100;95470.94;;;;
2020/10/11 05:55:43;;;;;;;12.7;8.449998;;;;;;;5.56;100;95470.94;;;;
2020/10/11 05:56:45;;;;;;;12.7;8.449998;;;;;;;5.56;100;95470.94;;;;
2020/10/11 05:57:46;;;;;;;12.7;8.449998;;;;;;;5.56;100;95470.94;;;;
2020/10/11 05:58:46;;;;;;;11.6;8.499998;;;;;;;5.67;100;95481.05;;;;
2020/10/11 05:59:47;;;;;;;11.6;8.499998;;;;;;;5.67;100;95481.05;;;;
2020/10/11 06:00:47;;;;;;;11.6;8.499998;;;;;;;5.67;100;95481.05;;;;
2020/10/11 06:01:54;;;;;;;11.6;8.499998;;;;;;;5.67;100;95481.05;;;;
2020/10/11 06:02:55;;;;;;;11.6;8.499998;;;;;;;5.67;100;95481.05;;;;
2020/10/11 06:03:55;;;;;;;11.6;8.499998;;;;;;;5.67;100;95481.05;;;;
2020/10/11 06:04:59;;;;;;;11.6;8.499998;;;;;;;5.67;100;95481.05;;;;
2020/10/11 06:05:59;;;;;;;11.6;8.499998;;;;;;;5.67;100;95481.05;;;;
2020/10/11 06:07:00;;;;;;;11.6;8.499998;;;;;;;5.67;100;95481.05;;;;
2020/10/11 06:08:01;;;;;;;11.6;8.499998;;;;;;;5.67;100;95481.05;;;;
2020/10/11 06:09:04;;;;;;;11.6;8.499998;;;;;;;5.67;100;95481.05;;;;
2020/10/11 06:10:07;;;;;;;13.4;8.349999;;;;;;;5.79;100;95484.81;;;;
2020/10/11 06:11:07;;;;;;;13.4;8.349999;;;;;;;5.79;100;95484.81;;;;
2020/10/11 06:12:08;;;;;;;13.4;8.349999;;;;;;;5.79;100;95484.81;;;;
2020/10/11 06:13:09;;;;;;;13.4;8.349999;;;;;;;5.79;100;95484.81;;;;
2020/10/11 06:14:09;;;;;;;13.4;8.349999;;;;;;;5.79;100;95484.81;;;;
2020/10/11 06:15:10;;;;;;;13.4;8.349999;;;;;;;5.79;100;95484.81;;;;
2020/10/11 06:16:10;;;;;;;13.4;8.349999;;;;;;;5.79;100;95484.81;;;;